Time;durP1;ratioP1;P1;durP2;ratioP2;P2;SDS_P1;SDS_P2;PMS_P1;PMS_P2;Temp;Humidity;BMP_temperature;BMP_pressure;BME280_temperature;BME280_humidity;BME280_pressure;Samples;Min_cycle;Max_cycle;Signal;HPM_P1;HPM_P2
2021/12/16 00:03:18;;;;;;;102.82;49.28;;;;;;;1.53;100.00;101596.50;5075753;28;20119;-79
2021/12/16 00:06:15;;;;;;;101.85;48.67;;;;;;;1.45;100.00;101604.44;5075649;28;20048;-79
2021/12/16 00:08:53;;;;;;;104.32;49.25;;;;;;;1.42;100.00;101607.91;5075532;28;20131;-79
2021/12/16 00:19:26;;;;;;;107.85;51.15;;;;;;;1.37;100.00;101590.41;5075804;28;20052;-78
2021/12/16 00:31:23;;;;;;;101.65;49.95;;;;;;;0.87;100.00;101614.94;5052464;28;20110;-78
2021/12/16 00:34:03;;;;;;;109.63;52.25;;;;;;;0.92;100.00;101622.81;5075155;28;20464;-78
2021/12/16 00:36:42;;;;;;;109.40;50.45;;;;;;;0.98;100.00;101622.84;5074170;28;20072;-78
2021/12/16 00:39:14;;;;;;;114.60;52.65;;;;;;;0.84;100.00;101621.06;5075350;28;20473;-78
2021/12/16 00:41:45;;;;;;;110.00;52.45;;;;;;;0.80;100.00;101624.56;5075036;28;20041;-78
2021/12/16 00:44:24;;;;;;;117.75;54.30;;;;;;;0.89;100.00;101628.09;5075299;28;20048;-78
2021/12/16 00:47:00;;;;;;;112.15;53.90;;;;;;;1.00;100.00;101627.22;5074867;28;20549;-78
2021/12/16 00:49:36;;;;;;;110.75;54.95;;;;;;;0.88;100.00;101621.09;5074951;28;20076;-77
2021/12/16 00:55:03;;;;;;;99.68;49.78;;;;;;;1.04;100.00;101607.94;5074601;28;20048;-78
2021/12/16 00:57:32;;;;;;;97.43;50.20;;;;;;;1.10;100.00;101617.59;5074818;28;20075;-78
2021/12/16 01:00:04;;;;;;;99.13;49.85;;;;;;;1.04;100.00;101613.19;5074129;28;20489;-78
2021/12/16 01:02:54;;;;;;;105.38;53.03;;;;;;;0.87;100.00;101609.69;5075023;28;20488;-78
2021/12/16 01:33:58;;;;;;;118.03;55.28;;;;;;;0.14;100.00;101604.25;5074024;28;20036;-84
2021/12/16 01:36:43;;;;;;;112.95;54.90;;;;;;;0.16;100.00;101607.75;5074118;28;20040;-85
2021/12/16 01:42:27;;;;;;;113.60;54.88;;;;;;;0.13;100.00;101585.00;5073428;28;20059;-85
2021/12/16 01:48:39;;;;;;;112.35;54.40;;;;;;;0.04;100.00;101591.97;5074135;28;20079;-85
2021/12/16 01:51:14;;;;;;;113.03;53.47;;;;;;;-0.09;100.00;101585.78;5073098;28;20036;-85
2021/12/16 01:56:41;;;;;;;113.53;55.10;;;;;;;-0.15;100.00;101586.63;5073302;28;20045;-79
2021/12/16 01:59:16;;;;;;;114.72;57.17;;;;;;;-0.19;100.00;101583.97;5073419;28;20044;-82
2021/12/16 02:01:47;;;;;;;113.80;53.60;;;;;;;-0.21;100.00;101583.09;5073395;28;20049;-80
2021/12/16 02:04:24;;;;;;;118.53;58.53;;;;;;;-0.20;100.00;101577.84;5073583;28;20047;-80
2021/12/16 02:07:07;;;;;;;117.85;55.83;;;;;;;-0.24;100.00;101578.72;5073417;28;20049;-80
2021/12/16 02:09:41;;;;;;;112.88;56.60;;;;;;;-0.28;100.00;101576.97;5073584;28;20045;-80
2021/12/16 02:12:19;;;;;;;112.63;55.63;;;;;;;-0.28;100.00;101574.34;5073257;28;20048;-80
2021/12/16 02:28:55;;;;;;;113.38;55.55;;;;;;;-0.49;100.00;101579.44;5073613;28;20123;-80
2021/12/16 02:31:33;;;;;;;111.78;55.92;;;;;;;-0.47;100.00;101575.97;5072121;28;20049;-79
2021/12/16 02:34:25;;;;;;;119.03;56.10;;;;;;;-0.50;100.00;101575.06;5072325;28;20041;-80
2021/12/16 02:36:56;;;;;;;108.75;54.40;;;;;;;-0.55;100.00;101563.69;5072629;28;20079;-85
2021/12/16 02:39:28;;;;;;;111.05;54.17;;;;;;;-0.51;100.00;101568.94;5072834;28;20040;-86
2021/12/16 02:42:03;;;;;;;113.53;55.20;;;;;;;-0.56;100.00;101577.66;5072828;28;20102;-85
2021/12/16 02:44:39;;;;;;;116.95;55.40;;;;;;;-0.60;100.00;101574.13;5073323;28;20044;-85
2021/12/16 02:49:56;;;;;;;114.88;56.03;;;;;;;-0.61;100.00;101567.13;5072461;28;20091;-82
2021/12/16 02:52:28;;;;;;;116.35;55.63;;;;;;;-0.57;100.00;101565.44;5072629;28;20075;-83
2021/12/16 02:54:57;;;;;;;111.63;55.97;;;;;;;-0.51;100.00;101560.19;5072827;28;20090;-81
2021/12/16 02:57:26;;;;;;;118.90;55.97;;;;;;;-0.45;100.00;101558.50;5072893;28;20037;-81
2021/12/16 02:59:56;;;;;;;110.40;56.47;;;;;;;-0.42;100.00;101553.28;5072656;28;20052;-80
2021/12/16 03:02:26;;;;;;;113.57;54.67;;;;;;;-0.36;100.00;101553.31;5072872;28;20040;-79
2021/12/16 03:04:55;;;;;;;112.82;55.80;;;;;;;-0.32;100.00;101547.19;5072711;28;20036;-80
2021/12/16 03:07:26;;;;;;;123.00;57.08;;;;;;;-0.19;100.00;101532.44;5072888;28;20045;-80
2021/12/16 03:15:47;;;;;;;108.25;53.83;;;;;;;0.02;100.00;101538.63;5072557;28;20072;-80
2021/12/16 03:18:26;;;;;;;111.70;55.78;;;;;;;0.00;100.00;101530.75;5072567;28;20075;-79
2021/12/16 03:20:59;;;;;;;118.30;56.13;;;;;;;0.01;100.00;101539.50;5072280;28;20123;-80
2021/12/16 03:23:43;;;;;;;;;;;;;;;0.01;100.00;101534.25;5073022;28;20036;-79
2021/12/16 03:37:20;;;;;;;118.85;59.30;;;;;;;-0.12;100.00;101549.03;5074180;28;20048;-78
2021/12/16 03:39:52;;;;;;;126.15;61.15;;;;;;;-0.16;100.00;101555.16;5072880;28;20421;-83
2021/12/16 03:42:25;;;;;;;117.13;59.05;;;;;;;-0.14;100.00;101546.41;5072747;28;20051;-79
2021/12/16 03:44:57;;;;;;;117.38;59.92;;;;;;;-0.13;100.00;101549.91;5074039;28;20068;-81
2021/12/16 03:47:33;;;;;;;118.23;60.33;;;;;;;-0.13;100.00;101552.53;5076127;28;20040;-78
2021/12/16 03:50:06;;;;;;;118.50;59.95;;;;;;;-0.16;100.00;101550.78;5076466;28;20044;-78
2021/12/16 03:52:35;;;;;;;;;;;;;;;-0.08;100.00;101546.44;5076161;28;20071;-80
2021/12/16 03:55:07;;;;;;;114.55;54.90;;;;;;;0.02;100.00;101549.13;5075763;28;20351;-78
2021/12/16 03:57:38;;;;;;;109.53;55.40;;;;;;;0.27;100.00;101554.41;5076282;28;20474;-78
2021/12/16 04:00:10;;;;;;;99.22;51.20;;;;;;;0.40;100.00;101552.72;5075572;28;20045;-78
2021/12/16 04:02:40;;;;;;;105.25;51.65;;;;;;;0.57;100.00;101555.34;5076639;28;20040;-78
2021/12/16 04:05:11;;;;;;;108.20;53.30;;;;;;;0.60;100.00;101549.25;5075291;28;20052;-77
2021/12/16 04:07:42;;;;;;;111.15;51.85;;;;;;;0.59;100.00;101550.13;5075593;28;20044;-78
2021/12/16 04:10:18;;;;;;;107.10;52.45;;;;;;;0.68;100.00;101545.75;5075465;28;20044;-78
2021/12/16 04:12:48;;;;;;;107.93;51.95;;;;;;;0.76;100.00;101543.13;5076201;28;20037;-78
2021/12/16 04:15:17;;;;;;;101.53;50.72;;;;;;;0.74;100.00;101540.50;5075375;28;20041;-79
2021/12/16 04:17:46;;;;;;;98.13;49.42;;;;;;;0.71;100.00;101540.50;5075692;28;20067;-81
2021/12/16 04:20:15;;;;;;;98.22;49.60;;;;;;;0.63;100.00;101546.63;5074971;28;20044;-78
2021/12/16 04:22:45;;;;;;;105.43;50.70;;;;;;;0.66;100.00;101541.38;5075370;28;20049;-79
2021/12/16 04:25:17;;;;;;;99.28;49.97;;;;;;;0.71;100.00;101542.25;5074935;28;20441;-81
2021/12/16 04:27:47;;;;;;;106.03;51.08;;;;;;;0.66;100.00;101536.09;5075587;28;20041;-82
2021/12/16 04:30:17;;;;;;;100.13;53.03;;;;;;;0.57;100.00;101548.34;5075514;28;20040;-82
2021/12/16 04:32:46;;;;;;;111.00;52.50;;;;;;;0.50;100.00;101545.75;5075184;28;20040;-83
2021/12/16 04:35:16;;;;;;;112.63;53.33;;;;;;;0.45;100.00;101542.22;5075062;28;20048;-82
2021/12/16 04:37:44;;;;;;;107.57;53.88;;;;;;;0.47;100.00;101557.09;5075569;28;20397;-81
2021/12/16 04:40:17;;;;;;;103.50;51.20;;;;;;;0.42;100.00;101537.84;5074708;28;20102;-81
2021/12/16 04:42:47;;;;;;;101.22;48.83;;;;;;;0.45;100.00;101537.84;5074985;28;20158;-81
2021/12/16 04:45:18;;;;;;;105.05;52.22;;;;;;;0.62;100.00;101529.13;5075013;28;20051;-81
2021/12/16 04:47:47;;;;;;;110.15;51.63;;;;;;;0.60;100.00;101530.88;5075188;28;20055;-81
2021/12/16 04:50:15;;;;;;;101.60;51.50;;;;;;;0.50;100.00;101536.13;5074427;28;20089;-81
2021/12/16 04:52:44;;;;;;;106.57;54.00;;;;;;;0.40;100.00;101534.34;5074602;28;20048;-81
2021/12/16 04:55:15;;;;;;;100.80;52.42;;;;;;;0.34;100.00;101534.31;5074344;28;20052;-81
2021/12/16 04:57:44;;;;;;;113.55;54.25;;;;;;;0.24;100.00;101522.94;5075041;28;20076;-80
2021/12/16 05:00:16;;;;;;;108.15;54.55;;;;;;;0.25;100.00;101523.81;5074644;28;20436;-82
2021/12/16 05:02:45;;;;;;;109.53;54.65;;;;;;;0.27;100.00;101532.53;5074985;28;20048;-82
2021/12/16 05:05:14;;;;;;;106.10;53.17;;;;;;;0.31;100.00;101529.06;5074549;28;20064;-85
2021/12/16 05:07:43;;;;;;;111.22;55.13;;;;;;;0.34;100.00;101534.31;5074660;28;20044;-79
2021/12/16 05:10:14;;;;;;;114.78;56.65;;;;;;;0.45;100.00;101526.47;5073981;28;20051;-78
2021/12/16 05:12:47;;;;;;;107.97;53.83;;;;;;;0.47;100.00;101524.72;5074430;28;20083;-78
2021/12/16 05:15:17;;;;;;;;;;;;;;;0.53;100.00;101525.59;5074825;28;20067;-84
2021/12/16 05:17:50;;;;;;;101.45;50.47;;;;;;;0.59;100.00;101523.88;5074394;28;19924;-85
2021/12/16 05:20:21;;;;;;;108.07;54.10;;;;;;;0.60;100.00;101529.13;5074312;28;20052;-80
2021/12/16 05:25:49;;;;;;;99.65;49.63;;;;;;;1.06;100.00;101543.16;5074324;28;20033;-83
2021/12/16 05:28:21;;;;;;;96.75;48.80;;;;;;;0.87;100.00;101541.41;5073687;28;20045;-75
2021/12/16 05:30:50;;;;;;;108.43;53.33;;;;;;;0.86;100.00;101543.13;5074320;28;20037;-75
2021/12/16 05:33:19;;;;;;;100.55;51.28;;;;;;;0.90;100.00;101543.13;5073443;28;20037;-76
2021/12/16 05:35:48;;;;;;;107.40;52.85;;;;;;;0.94;100.00;101553.63;5074110;28;20040;-75
2021/12/16 05:38:19;;;;;;;99.30;50.70;;;;;;;0.97;100.00;101552.78;5073600;28;20429;-76
2021/12/16 05:40:48;;;;;;;101.07;52.88;;;;;;;0.81;100.00;101552.75;5073889;28;20132;-75
2021/12/16 05:43:22;;;;;;;98.32;48.67;;;;;;;0.87;100.00;101557.16;5073563;28;20044;-78
2021/12/16 05:45:52;;;;;;;93.07;47.42;;;;;;;0.95;100.00;101562.38;5073733;28;20486;-73
2021/12/16 05:48:23;;;;;;;95.13;48.60;;;;;;;0.81;100.00;101557.16;5073132;28;20494;-71
2021/12/16 05:50:54;;;;;;;90.15;47.10;;;;;;;0.73;100.00;101567.63;5073952;28;20045;-71
2021/12/16 05:53:23;;;;;;;96.07;49.13;;;;;;;0.81;100.00;101559.78;5073408;28;20478;-71
2021/12/16 05:55:52;;;;;;;92.03;47.05;;;;;;;0.74;100.00;101560.63;5073624;28;20063;-72
2021/12/16 05:58:22;;;;;;;86.63;43.85;;;;;;;0.94;100.00;101564.13;5073518;28;20044;-72
2021/12/16 06:00:54;;;;;;;91.82;45.42;;;;;;;1.00;100.00;101558.91;5073465;28;20045;-72
2021/12/16 06:03:23;;;;;;;91.13;45.60;;;;;;;0.99;100.00;101566.78;5073273;28;20105;-71
2021/12/16 06:05:53;;;;;;;90.00;44.53;;;;;;;0.96;100.00;101558.88;5073677;28;20393;-72
2021/12/16 06:08:22;;;;;;;87.95;44.28;;;;;;;0.89;100.00;101557.16;5072687;28;20047;-72
2021/12/16 06:11:14;;;;;;;85.60;43.38;;;;;;;0.96;100.00;101556.25;5073468;28;20482;-71
2021/12/16 06:13:56;;;;;;;90.45;43.85;;;;;;;1.07;100.00;101560.66;5073498;28;20040;-71
2021/12/16 06:27:32;;;;;;;75.50;36.65;;;;;;;0.94;100.00;101556.25;5073125;28;20044;-74
2021/12/16 06:30:03;;;;;;;73.22;36.90;;;;;;;1.04;100.00;101547.50;5073068;28;20048;-75
2021/12/16 06:32:32;;;;;;;70.80;35.33;;;;;;;1.04;100.00;101555.38;5073029;28;20072;-74
2021/12/16 06:35:03;;;;;;;70.72;35.92;;;;;;;1.11;100.00;101551.88;5073260;28;20435;-72
2021/12/16 06:37:32;;;;;;;74.20;37.00;;;;;;;1.08;100.00;101557.16;5072753;28;20086;-74
2021/12/16 06:40:01;;;;;;;70.78;35.97;;;;;;;1.02;100.00;101548.38;5073229;28;20057;-72
2021/12/16 06:42:30;;;;;;;71.35;36.20;;;;;;;1.30;100.00;101562.38;5072547;28;20057;-72
2021/12/16 06:45:04;;;;;;;70.85;37.30;;;;;;;1.27;100.00;101562.41;5072869;28;20044;-72
2021/12/16 06:47:43;;;;;;;66.80;35.22;;;;;;;1.25;100.00;101564.13;5073539;28;20067;-75
2021/12/16 06:50:23;;;;;;;67.95;34.75;;;;;;;1.19;100.00;101574.66;5072641;28;20041;-75
2021/12/16 06:52:58;;;;;;;64.70;33.58;;;;;;;1.28;100.00;101574.66;5072839;28;20045;-74
2021/12/16 06:55:34;;;;;;;69.03;34.67;;;;;;;1.41;100.00;101576.38;5072930;28;20049;-75
2021/12/16 06:58:13;;;;;;;63.53;35.08;;;;;;;1.48;100.00;101575.50;5073267;28;20064;-75
2021/12/16 07:00:46;;;;;;;66.90;33.55;;;;;;;1.47;100.00;101576.38;5072985;28;20393;-71
2021/12/16 07:03:19;;;;;;;68.93;34.75;;;;;;;1.44;100.00;101584.25;5072443;28;20048;-73
2021/12/16 07:05:52;;;;;;;70.15;35.65;;;;;;;1.46;100.00;101584.28;5072748;28;20123;-72
2021/12/16 07:08:23;;;;;;;73.90;36.45;;;;;;;1.33;100.00;101578.13;5073061;28;20462;-72
2021/12/16 07:10:54;;;;;;;68.60;35.95;;;;;;;1.41;100.00;101582.50;5073063;28;20036;-71
2021/12/16 07:13:31;;;;;;;68.82;36.72;;;;;;;1.60;100.00;101587.75;5072691;28;20474;-74
2021/12/16 07:15:59;;;;;;;71.18;36.20;;;;;;;1.54;100.00;101579.84;5072617;28;20090;-72
2021/12/16 07:18:32;;;;;;;75.43;37.63;;;;;;;1.63;100.00;101580.72;5073243;28;20123;-71
2021/12/16 07:21:00;;;;;;;70.80;36.58;;;;;;;1.60;100.00;101580.72;5076853;28;20071;-76
2021/12/16 07:23:29;;;;;;;71.43;36.33;;;;;;;1.69;100.00;101578.06;5076482;28;20044;-73
2021/12/16 07:26:00;;;;;;;70.97;36.35;;;;;;;1.65;100.00;101580.72;5076461;28;20051;-76
2021/12/16 07:28:28;;;;;;;71.85;37.97;;;;;;;1.80;100.00;101579.78;5076872;28;20047;-76
2021/12/16 07:30:58;;;;;;;70.75;37.45;;;;;;;1.82;100.00;101578.03;5077522;28;20056;-71
2021/12/16 07:33:27;;;;;;;69.03;36.50;;;;;;;1.92;100.00;101577.97;5079786;28;20102;-70
2021/12/16 07:35:58;;;;;;;69.25;36.53;;;;;;;1.94;100.00;101573.63;5080714;28;20065;-70
2021/12/16 07:38:27;;;;;;;72.95;38.50;;;;;;;1.98;100.00;101577.09;5080539;28;20045;-70
2021/12/16 07:40:57;;;;;;;69.25;36.88;;;;;;;1.97;100.00;101573.59;5081338;28;20102;-70
2021/12/16 07:43:41;;;;;;;74.03;36.85;;;;;;;1.88;100.00;101580.66;5078163;28;20044;-71
2021/12/16 07:46:11;;;;;;;72.30;36.35;;;;;;;1.98;100.00;101563.94;5078014;28;20051;-73
2021/12/16 07:48:40;;;;;;;76.18;36.30;;;;;;;1.98;100.00;101574.47;5077162;28;20079;-73
2021/12/16 07:51:10;;;;;;;78.20;37.92;;;;;;;2.01;100.00;101570.06;5077596;28;20040;-73
2021/12/16 07:53:40;;;;;;;72.15;36.25;;;;;;;2.06;100.00;101572.69;5077332;28;20041;-73
2021/12/16 07:56:08;;;;;;;79.63;37.80;;;;;;;2.05;100.00;101565.69;5058000;28;20048;-74
2021/12/16 07:58:37;;;;;;;69.75;36.33;;;;;;;2.22;100.00;101566.47;5065231;28;20461;-72
2021/12/16 08:01:06;;;;;;;76.95;35.20;;;;;;;2.29;100.00;101573.44;5077752;28;20487;-71
2021/12/16 08:03:37;;;;;;;78.20;36.83;;;;;;;2.47;100.00;101580.38;5075910;28;20064;-71
2021/12/16 08:06:13;;;;;;;76.93;36.58;;;;;;;2.25;100.00;101568.22;5061798;28;20094;-70
2021/12/16 08:08:42;;;;;;;71.13;34.22;;;;;;;2.23;100.00;101570.84;5080748;28;20032;-71
2021/12/16 08:11:10;;;;;;;73.95;36.17;;;;;;;2.32;100.00;101574.31;5078156;28;20094;-71
2021/12/16 08:13:40;;;;;;;70.30;36.40;;;;;;;2.07;100.00;101569.16;5075577;28;20403;-73
2021/12/16 08:16:09;;;;;;;72.95;34.67;;;;;;;2.16;100.00;101570.88;5074529;28;20052;-72
2021/12/16 08:18:39;;;;;;;78.15;37.15;;;;;;;2.24;100.00;101575.25;5075199;28;20045;-72
2021/12/16 08:21:10;;;;;;;73.32;34.97;;;;;;;2.27;100.00;101574.34;5074749;28;20401;-71
2021/12/16 08:23:38;;;;;;;77.93;35.67;;;;;;;2.15;100.00;101577.91;5075106;28;20072;-71
2021/12/16 08:26:06;;;;;;;75.65;36.05;;;;;;;2.12;100.00;101577.91;5074229;28;20087;-72
2021/12/16 08:28:35;;;;;;;79.70;35.85;;;;;;;2.08;100.00;101578.81;5075245;28;20052;-71
2021/12/16 08:31:07;;;;;;;77.45;36.63;;;;;;;2.13;100.00;101584.06;5074688;28;20048;-71
2021/12/16 08:33:35;;;;;;;76.07;37.55;;;;;;;1.98;100.00;101579.72;5075270;28;20047;-72
2021/12/16 08:36:05;;;;;;;79.75;37.58;;;;;;;2.03;100.00;101580.59;5075085;28;20124;-71
2021/12/16 08:38:36;;;;;;;85.40;38.20;;;;;;;1.94;100.00;101578.00;5075748;28;20497;-72
2021/12/16 08:41:11;;;;;;;75.93;36.50;;;;;;;2.01;100.00;101580.59;5075447;28;20064;-72
2021/12/16 08:43:41;;;;;;;81.88;36.83;;;;;;;2.23;100.00;101583.16;5075943;28;20110;-72
2021/12/16 08:46:12;;;;;;;84.55;38.40;;;;;;;2.07;100.00;101578.81;5075351;28;20485;-71
2021/12/16 08:48:41;;;;;;;79.43;37.45;;;;;;;2.15;100.00;101579.66;5075144;28;20127;-71
2021/12/16 08:51:11;;;;;;;82.57;37.35;;;;;;;2.15;100.00;101574.41;5075071;28;20496;-72
2021/12/16 08:53:41;;;;;;;81.28;38.60;;;;;;;2.03;100.00;101577.97;5074504;28;20456;-72
2021/12/16 08:56:09;;;;;;;81.57;37.25;;;;;;;2.07;100.00;101571.81;5075224;28;20090;-71
2021/12/16 08:58:38;;;;;;;77.47;36.72;;;;;;;2.14;100.00;101570.03;5074411;28;20397;-72
2021/12/16 09:01:12;;;;;;;80.03;38.42;;;;;;;2.01;100.00;101574.44;5074606;28;20044;-72
2021/12/16 09:03:40;;;;;;;;;;;;;;;2.02;100.00;101568.28;5074838;28;20048;-72
2021/12/16 09:06:09;;;;;;;78.18;36.80;;;;;;;2.03;100.00;101577.97;5074948;28;20293;-72
2021/12/16 09:08:38;;;;;;;83.00;37.03;;;;;;;2.15;100.00;101570.00;5074438;28;20045;-72
2021/12/16 09:11:14;;;;;;;83.82;37.22;;;;;;;2.19;100.00;101574.38;5074611;28;20101;-72
2021/12/16 09:13:43;;;;;;;80.85;36.50;;;;;;;2.15;100.00;101562.13;5074442;28;20402;-72
2021/12/16 09:16:15;;;;;;;82.32;36.92;;;;;;;2.10;100.00;101563.88;5074557;28;20070;-71
2021/12/16 09:18:43;;;;;;;80.15;35.63;;;;;;;2.27;100.00;101562.03;5074398;28;20128;-72
2021/12/16 09:21:15;;;;;;;83.32;36.65;;;;;;;2.33;100.00;101562.91;5074561;28;20114;-72
2021/12/16 09:23:46;;;;;;;84.18;37.05;;;;;;;2.27;100.00;101566.44;5074277;28;20048;-72
2021/12/16 09:26:17;;;;;;;84.57;35.95;;;;;;;2.30;100.00;101571.69;5074487;28;20098;-71
2021/12/16 09:28:45;;;;;;;83.72;37.00;;;;;;;2.48;100.00;101568.94;5074011;28;20040;-71
2021/12/16 09:31:16;;;;;;;81.00;36.70;;;;;;;2.40;100.00;101569.88;5074409;28;20102;-71
2021/12/16 09:33:48;;;;;;;84.95;37.00;;;;;;;2.52;100.00;101565.44;5073594;28;20040;-72
2021/12/16 09:36:20;;;;;;;77.53;35.33;;;;;;;2.56;100.00;101564.50;5074217;28;20528;-72
2021/12/16 09:38:50;;;;;;;81.40;36.13;;;;;;;2.64;100.00;101559.19;5074251;28;20045;-71
2021/12/16 09:41:20;;;;;;;81.75;37.72;;;;;;;2.65;100.00;101563.56;5073176;28;20058;-71
2021/12/16 09:43:51;;;;;;;78.40;35.58;;;;;;;2.71;100.00;101560.91;5073569;28;20102;-71
2021/12/16 09:46:24;;;;;;;76.30;34.25;;;;;;;2.56;100.00;101553.09;5074151;28;20068;-71
2021/12/16 09:48:54;;;;;;;74.80;34.10;;;;;;;2.61;100.00;101550.44;5074151;28;20048;-72
2021/12/16 09:51:26;;;;;;;77.47;34.47;;;;;;;2.63;100.00;101556.56;5073908;28;20472;-72
2021/12/16 09:53:58;;;;;;;87.10;38.38;;;;;;;2.46;100.00;101552.28;5073546;28;20044;-72
2021/12/16 09:56:30;;;;;;;83.45;35.70;;;;;;;2.50;100.00;101554.00;5073682;28;20079;-72
2021/12/16 09:59:00;;;;;;;78.10;34.05;;;;;;;2.42;100.00;101552.31;5073894;28;20058;-72
2021/12/16 10:01:30;;;;;;;83.28;35.33;;;;;;;2.40;100.00;101551.44;5073616;28;20130;-72
2021/12/16 10:04:02;;;;;;;74.13;34.15;;;;;;;2.45;100.00;101545.28;5073681;28;20493;-70
2021/12/16 10:06:37;;;;;;;78.80;34.63;;;;;;;2.53;100.00;101546.09;5073150;28;20551;-72
2021/12/16 10:09:06;;;;;;;75.28;34.83;;;;;;;2.63;100.00;101543.41;5073905;28;20086;-72
2021/12/16 10:11:38;;;;;;;73.47;34.42;;;;;;;2.69;100.00;101543.34;5073267;28;20051;-72
2021/12/16 10:14:20;;;;;;;71.32;33.72;;;;;;;2.79;100.00;101538.00;5073459;28;20049;-71
2021/12/16 10:19:35;;;;;;;67.80;33.53;;;;;;;3.02;100.00;101532.53;5073301;28;20082;-72
2021/12/16 10:22:18;;;;;;;65.95;33.10;;;;;;;3.27;100.00;101537.56;5073693;28;20045;-71
2021/12/16 10:24:48;;;;;;;65.75;31.88;;;;;;;3.41;100.00;101531.28;5073411;28;20056;-72
2021/12/16 10:27:20;;;;;;;69.60;32.40;;;;;;;3.56;100.00;101529.34;5073088;28;20036;-71
2021/12/16 10:29:50;;;;;;;68.72;31.77;;;;;;;3.61;100.00;101530.19;5073108;28;20443;-71
2021/12/16 10:32:35;;;;;;;68.45;33.17;;;;;;;3.52;100.00;101522.38;5073346;28;20044;-71
2021/12/16 10:35:08;;;;;;;66.22;30.23;;;;;;;3.56;100.00;101518.81;5073346;28;20044;-71
2021/12/16 10:37:38;;;;;;;59.95;31.23;;;;;;;3.81;100.00;101508.84;5072940;28;20044;-72
2021/12/16 10:40:33;;;;;;;66.60;32.75;;;;;;;3.98;100.00;101518.31;5073079;28;20354;-72
2021/12/16 10:43:08;;;;;;;65.63;31.65;;;;;;;4.05;100.00;101505.00;5073259;28;20448;-72
2021/12/16 10:45:39;;;;;;;59.53;29.30;;;;;;;4.29;100.00;101507.31;5072988;28;20051;-72
2021/12/16 10:48:22;;;;;;;56.95;27.75;;;;;;;4.41;100.00;101499.19;5073036;28;20059;-72
2021/12/16 10:50:55;;;;;;;55.95;26.20;;;;;;;4.50;100.00;101490.28;5072818;28;20051;-71
2021/12/16 10:53:41;;;;;;;;;;;;;;;4.43;100.00;101493.88;5075122;28;20101;-72
2021/12/16 10:56:10;;;;;;;57.83;28.40;;;;;;;4.46;100.00;101499.16;5079780;28;20026;-71
2021/12/16 10:58:52;;;;;;;59.70;27.00;;;;;;;4.59;100.00;101500.69;5079433;28;20058;-72
2021/12/16 11:01:35;;;;;;;58.05;28.50;;;;;;;4.53;100.00;101506.94;5079501;28;20040;-72
2021/12/16 11:04:08;;;;;;;57.53;29.10;;;;;;;4.59;100.00;101506.84;5079704;28;20041;-70
2021/12/16 11:06:39;;;;;;;55.92;28.63;;;;;;;4.54;100.00;101502.56;5079212;28;20482;-71
2021/12/16 11:09:43;;;;;;;62.55;31.33;;;;;;;4.36;100.00;101502.81;5079970;28;20044;-72
2021/12/16 11:12:34;;;;;;;55.60;27.23;;;;;;;4.46;100.00;101510.59;5079748;28;20079;-72
2021/12/16 11:15:13;;;;;;;61.38;29.08;;;;;;;4.52;100.00;101505.19;5079655;28;20462;-72
2021/12/16 11:17:43;;;;;;;54.38;29.13;;;;;;;4.56;100.00;101496.34;5078049;28;20509;-71
2021/12/16 11:20:17;;;;;;;60.58;29.77;;;;;;;4.61;100.00;101493.59;5079497;28;20040;-71
2021/12/16 11:22:48;;;;;;;53.10;27.58;;;;;;;4.74;100.00;101494.31;5079487;28;20126;-72
2021/12/16 11:25:24;;;;;;;56.75;28.77;;;;;;;4.72;100.00;101490.78;5079647;28;20051;-71
2021/12/16 11:27:55;;;;;;;64.57;31.50;;;;;;;4.85;100.00;101484.41;5079440;28;20116;-71
2021/12/16 11:30:33;;;;;;;57.60;29.52;;;;;;;4.92;100.00;101480.75;5079483;28;20106;-71
2021/12/16 11:33:09;;;;;;;58.53;29.92;;;;;;;4.94;100.00;101478.97;5079574;28;20067;-72
2021/12/16 11:35:50;;;;;;;60.20;28.58;;;;;;;5.00;100.00;101485.91;5078957;28;20040;-71
2021/12/16 11:38:23;;;;;;;57.17;27.67;;;;;;;5.09;100.00;101480.47;5079091;28;20048;-71
2021/12/16 11:41:00;;;;;;;58.45;28.92;;;;;;;5.10;100.00;101477.78;5079194;28;20597;-71
2021/12/16 11:43:41;;;;;;;55.53;27.85;;;;;;;5.12;100.00;101473.38;5079322;28;20055;-71
2021/12/16 11:46:22;;;;;;;47.45;24.48;;;;;;;5.33;100.00;101479.16;5078916;28;20067;-71
2021/12/16 11:49:15;;;;;;;46.65;23.77;;;;;;;5.28;100.00;101470.41;5079315;28;20043;-71
2021/12/16 11:51:46;;;;;;;49.72;25.02;;;;;;;5.26;100.00;101469.56;5078818;28;20048;-72
2021/12/16 11:54:20;;;;;;;50.63;25.48;;;;;;;5.33;100.00;101473.84;5079385;28;20098;-72
2021/12/16 11:56:54;;;;;;;46.90;23.80;;;;;;;5.28;100.00;101470.41;5078684;28;20048;-71
2021/12/16 11:59:25;;;;;;;50.90;25.55;;;;;;;5.41;100.00;101466.66;5079086;28;20045;-72
2021/12/16 12:01:56;;;;;;;48.53;23.55;;;;;;;5.46;100.00;101459.47;5078881;28;20051;-71
2021/12/16 12:04:29;;;;;;;49.72;24.45;;;;;;;5.54;100.00;101465.50;5078664;28;20037;-71
2021/12/16 12:06:57;;;;;;;46.33;24.67;;;;;;;5.41;100.00;101462.22;5075267;28;20048;-71
2021/12/16 12:09:38;;;;;;;52.08;24.50;;;;;;;5.64;100.00;101459.09;5074814;28;20148;-71
2021/12/16 12:12:08;;;;;;;47.38;22.55;;;;;;;5.66;100.00;101465.22;5076032;28;20439;-71
2021/12/16 12:14:38;;;;;;;50.60;25.30;;;;;;;5.57;100.00;101473.34;5075481;28;20392;-72
2021/12/16 12:17:11;;;;;;;47.58;24.40;;;;;;;5.63;100.00;101461.78;5075729;28;20045;-71
2021/12/16 12:19:45;;;;;;;47.95;24.33;;;;;;;5.62;100.00;101470.63;5075654;28;20044;-72
2021/12/16 12:22:14;;;;;;;50.25;25.85;;;;;;;5.71;100.00;101454.56;5075860;28;20134;-71
2021/12/16 12:24:46;;;;;;;49.25;24.63;;;;;;;5.60;100.00;101462.72;5075114;28;20045;-71
2021/12/16 12:27:19;;;;;;;50.80;25.73;;;;;;;5.68;100.00;101455.47;5075701;28;20040;-71
2021/12/16 12:29:49;;;;;;;48.60;24.33;;;;;;;5.72;100.00;101451.00;5075387;28;20044;-71
2021/12/16 12:32:22;;;;;;;54.85;26.27;;;;;;;5.69;100.00;101466.94;5075668;28;20053;-71
2021/12/16 12:34:54;;;;;;;53.13;26.17;;;;;;;5.73;100.00;101458.03;5075212;28;20078;-71
2021/12/16 12:37:24;;;;;;;54.03;25.73;;;;;;;5.81;100.00;101442.00;5075478;28;20095;-71
2021/12/16 12:39:55;;;;;;;50.67;24.45;;;;;;;5.90;100.00;101441.81;5074606;28;20040;-71
2021/12/16 12:42:24;;;;;;;46.30;24.27;;;;;;;5.87;100.00;101444.50;5075373;28;20090;-71
2021/12/16 12:44:52;;;;;;;45.63;24.00;;;;;;;5.84;100.00;101448.09;5074739;28;20055;-71
2021/12/16 12:47:27;;;;;;;45.03;23.50;;;;;;;5.78;100.00;101437.63;5074914;28;20032;-71
2021/12/16 12:50:09;;;;;;;47.05;24.58;;;;;;;5.71;100.00;101442.19;5075099;28;20098;-71
2021/12/16 12:52:39;;;;;;;48.95;23.95;;;;;;;5.80;100.00;101443.78;5074796;28;20045;-71
2021/12/16 12:55:11;;;;;;;44.45;23.02;;;;;;;5.77;100.00;101442.94;5074922;28;20036;-71
2021/12/16 12:57:43;;;;;;;51.42;24.02;;;;;;;5.86;100.00;101437.47;5074830;28;20072;-71
2021/12/16 13:00:27;;;;;;;45.10;22.02;;;;;;;5.83;100.00;101448.13;5075307;28;20048;-71
2021/12/16 13:02:59;;;;;;;42.15;22.15;;;;;;;5.78;100.00;101447.34;5074459;28;20048;-71
2021/12/16 13:05:29;;;;;;;44.72;22.73;;;;;;;5.79;100.00;101454.38;5074989;28;20049;-71
2021/12/16 13:08:00;;;;;;;46.05;23.50;;;;;;;5.78;100.00;101455.28;5074643;28;20429;-71
2021/12/16 13:10:33;;;;;;;44.10;22.08;;;;;;;5.74;100.00;101460.66;5074488;28;20094;-71
2021/12/16 13:13:32;;;;;;;42.10;22.25;;;;;;;5.80;100.00;101461.44;5074438;28;20047;-72
2021/12/16 13:16:38;;;;;;;42.33;21.15;;;;;;;5.87;100.00;101463.91;5073901;28;20048;-72
2021/12/16 13:28:01;;;;;;;41.70;23.35;;;;;;;5.73;100.00;101458.03;5053219;28;20052;-72
2021/12/16 13:30:38;;;;;;;41.83;22.42;;;;;;;5.78;100.00;101456.16;5074313;28;20044;-72
2021/12/16 13:33:20;;;;;;;47.10;23.05;;;;;;;5.71;100.00;101460.72;5074452;28;20087;-71